sensor_id;sensor_type;location;lat;lon;timestamp;temperature;humidity
4637;DHT22;2331;48.806;9.140;2022-09-11T00:02:47;16.70;1.00
4637;DHT22;2331;48.806;9.140;2022-09-11T00:12:11;16.70;1.00
4637;DHT22;2331;48.806;9.140;2022-09-11T00:14:38;16.80;1.00
4637;DHT22;2331;48.806;9.140;2022-09-11T00:17:05;16.80;1.00
4637;DHT22;2331;48.806;9.140;2022-09-11T00:19:33;16.80;1.00
4637;DHT22;2331;48.806;9.140;2022-09-11T00:22:00;16.80;1.00
4637;DHT22;2331;48.806;9.140;2022-09-11T00:24:27;16.80;1.00
4637;DHT22;2331;48.806;9.140;2022-09-11T00:26:54;16.80;1.00
4637;DHT22;2331;48.806;9.140;2022-09-11T00:39:28;16.80;1.00
4637;DHT22;2331;48.806;9.140;2022-09-11T00:41:55;16.80;1.00
4637;DHT22;2331;48.806;9.140;2022-09-11T00:44:58;16.80;1.00
4637;DHT22;2331;48.806;9.140;2022-09-11T00:47:26;16.80;1.00
4637;DHT22;2331;48.806;9.140;2022-09-11T00:49:56;16.70;1.00
4637;DHT22;2331;48.806;9.140;2022-09-11T00:52:28;16.70;1.00
4637;DHT22;2331;48.806;9.140;2022-09-11T00:55:00;16.70;1.00
4637;DHT22;2331;48.806;9.140;2022-09-11T00:57:32;16.70;1.00
4637;DHT22;2331;48.806;9.140;2022-09-11T01:00:02;16.80;1.00
4637;DHT22;2331;48.806;9.140;2022-09-11T01:02:32;16.70;1.00
4637;DHT22;2331;48.806;9.140;2022-09-11T01:05:00;16.70;1.00
4637;DHT22;2331;48.806;9.140;2022-09-11T01:07:28;16.70;1.00
4637;DHT22;2331;48.806;9.140;2022-09-11T01:09:57;16.80;1.00
4637;DHT22;2331;48.806;9.140;2022-09-11T01:15:53;16.80;1.00
4637;DHT22;2331;48.806;9.140;2022-09-11T01:18:30;16.80;1.00
4637;DHT22;2331;48.806;9.140;2022-09-11T01:21:23;16.70;1.00
4637;DHT22;2331;48.806;9.140;2022-09-11T01:24:14;16.70;1.00
4637;DHT22;2331;48.806;9.140;2022-09-11T01:26:58;16.70;1.00
4637;DHT22;2331;48.806;9.140;2022-09-11T01:29:31;16.80;1.00
4637;DHT22;2331;48.806;9.140;2022-09-11T01:32:06;16.80;1.00
4637;DHT22;2331;48.806;9.140;2022-09-11T01:34:39;16.80;1.00
4637;DHT22;2331;48.806;9.140;2022-09-11T01:37:13;16.80;1.00
4637;DHT22;2331;48.806;9.140;2022-09-11T01:39:45;16.80;1.00
4637;DHT22;2331;48.806;9.140;2022-09-11T01:42:17;16.70;1.00
4637;DHT22;2331;48.806;9.140;2022-09-11T01:44:50;16.80;1.00
4637;DHT22;2331;48.806;9.140;2022-09-11T01:47:19;16.80;1.00
4637;DHT22;2331;48.806;9.140;2022-09-11T01:49:49;16.70;1.00
4637;DHT22;2331;48.806;9.140;2022-09-11T01:52:19;16.70;1.00
4637;DHT22;2331;48.806;9.140;2022-09-11T01:54:50;16.80;1.00
4637;DHT22;2331;48.806;9.140;2022-09-11T01:57:25;16.80;1.00
4637;DHT22;2331;48.806;9.140;2022-09-11T01:59:57;16.80;1.00
4637;DHT22;2331;48.806;9.140;2022-09-11T02:02:28;16.80;1.00
4637;DHT22;2331;48.806;9.140;2022-09-11T02:04:59;16.70;1.00
4637;DHT22;2331;48.806;9.140;2022-09-11T02:07:30;16.80;1.00
4637;DHT22;2331;48.806;9.140;2022-09-11T02:10:04;16.70;1.00
4637;DHT22;2331;48.806;9.140;2022-09-11T02:12:37;16.80;1.00
4637;DHT22;2331;48.806;9.140;2022-09-11T02:15:08;16.70;1.00
4637;DHT22;2331;48.806;9.140;2022-09-11T02:17:44;16.70;1.00
4637;DHT22;2331;48.806;9.140;2022-09-11T02:20:14;16.70;1.00
4637;DHT22;2331;48.806;9.140;2022-09-11T02:22:41;16.80;1.00
4637;DHT22;2331;48.806;9.140;2022-09-11T02:25:09;16.70;1.00
4637;DHT22;2331;48.806;9.140;2022-09-11T02:27:38;16.80;1.00
4637;DHT22;2331;48.806;9.140;2022-09-11T02:30:08;16.70;1.00
4637;DHT22;2331;48.806;9.140;2022-09-11T02:32:37;16.70;1.00
4637;DHT22;2331;48.806;9.140;2022-09-11T02:35:06;16.70;1.00
4637;DHT22;2331;48.806;9.140;2022-09-11T02:37:41;16.70;1.00
4637;DHT22;2331;48.806;9.140;2022-09-11T02:40:26;16.80;1.00
4637;DHT22;2331;48.806;9.140;2022-09-11T02:46:16;16.90;1.00
4637;DHT22;2331;48.806;9.140;2022-09-11T02:48:54;16.90;1.00
4637;DHT22;2331;48.806;9.140;2022-09-11T02:51:28;16.80;1.00
4637;DHT22;2331;48.806;9.140;2022-09-11T02:54:01;16.90;1.00
4637;DHT22;2331;48.806;9.140;2022-09-11T02:56:37;16.80;1.00
4637;DHT22;2331;48.806;9.140;2022-09-11T02:59:09;16.80;1.00
4637;DHT22;2331;48.806;9.140;2022-09-11T03:01:51;16.80;1.00
4637;DHT22;2331;48.806;9.140;2022-09-11T03:04:20;16.80;1.00
4637;DHT22;2331;48.806;9.140;2022-09-11T03:06:48;16.80;1.00
4637;DHT22;2331;48.806;9.140;2022-09-11T03:09:15;16.60;1.00
4637;DHT22;2331;48.806;9.140;2022-09-11T03:11:42;16.80;1.00
4637;DHT22;2331;48.806;9.140;2022-09-11T03:14:09;16.90;1.00
4637;DHT22;2331;48.806;9.140;2022-09-11T03:16:36;16.90;1.00
4637;DHT22;2331;48.806;9.140;2022-09-11T03:19:05;16.90;1.00
4637;DHT22;2331;48.806;9.140;2022-09-11T03:21:32;16.90;1.00
4637;DHT22;2331;48.806;9.140;2022-09-11T03:24:01;16.80;1.00
4637;DHT22;2331;48.806;9.140;2022-09-11T03:26:28;16.80;1.00
4637;DHT22;2331;48.806;9.140;2022-09-11T03:28:56;16.80;1.00
4637;DHT22;2331;48.806;9.140;2022-09-11T03:31:22;16.80;1.00
4637;DHT22;2331;48.806;9.140;2022-09-11T03:33:49;16.80;1.00
4637;DHT22;2331;48.806;9.140;2022-09-11T03:36:18;16.90;1.00
4637;DHT22;2331;48.806;9.140;2022-09-11T03:38:45;16.90;1.00
4637;DHT22;2331;48.806;9.140;2022-09-11T03:41:12;16.90;1.00
4637;DHT22;2331;48.806;9.140;2022-09-11T03:43:39;16.90;1.00
4637;DHT22;2331;48.806;9.140;2022-09-11T03:46:05;16.90;1.00
4637;DHT22;2331;48.806;9.140;2022-09-11T03:48:32;16.90;1.00
4637;DHT22;2331;48.806;9.140;2022-09-11T03:50:59;16.80;1.00
4637;DHT22;2331;48.806;9.140;2022-09-11T03:53:27;16.80;1.00
4637;DHT22;2331;48.806;9.140;2022-09-11T03:55:54;16.90;1.00
4637;DHT22;2331;48.806;9.140;2022-09-11T03:58:21;16.90;1.00
4637;DHT22;2331;48.806;9.140;2022-09-11T04:00:47;16.90;1.00
4637;DHT22;2331;48.806;9.140;2022-09-11T04:03:15;16.90;1.00
4637;DHT22;2331;48.806;9.140;2022-09-11T04:05:42;16.90;1.00
4637;DHT22;2331;48.806;9.140;2022-09-11T04:08:11;17.00;1.00
4637;DHT22;2331;48.806;9.140;2022-09-11T04:10:39;16.90;1.00
4637;DHT22;2331;48.806;9.140;2022-09-11T04:13:06;16.90;1.00
4637;DHT22;2331;48.806;9.140;2022-09-11T04:15:33;16.90;1.00
4637;DHT22;2331;48.806;9.140;2022-09-11T04:18:00;16.90;1.00
4637;DHT22;2331;48.806;9.140;2022-09-11T04:20:26;17.00;1.00
4637;DHT22;2331;48.806;9.140;2022-09-11T04:22:53;16.90;1.00
4637;DHT22;2331;48.806;9.140;2022-09-11T04:25:20;16.90;1.00
4637;DHT22;2331;48.806;9.140;2022-09-11T04:27:48;17.00;1.00
4637;DHT22;2331;48.806;9.140;2022-09-11T04:30:15;16.90;1.00
4637;DHT22;2331;48.806;9.140;2022-09-11T04:32:42;16.90;1.00
4637;DHT22;2331;48.806;9.140;2022-09-11T04:35:10;16.90;1.00
4637;DHT22;2331;48.806;9.140;2022-09-11T04:37:37;17.00;1.00
4637;DHT22;2331;48.806;9.140;2022-09-11T04:40:06;17.00;1.00
4637;DHT22;2331;48.806;9.140;2022-09-11T04:42:34;17.00;1.00
4637;DHT22;2331;48.806;9.140;2022-09-11T04:45:02;17.00;1.00
4637;DHT22;2331;48.806;9.140;2022-09-11T04:47:29;17.00;1.00
4637;DHT22;2331;48.806;9.140;2022-09-11T04:49:56;17.10;1.00
4637;DHT22;2331;48.806;9.140;2022-09-11T04:52:23;17.00;1.00
4637;DHT22;2331;48.806;9.140;2022-09-11T04:54:50;17.00;1.00
4637;DHT22;2331;48.806;9.140;2022-09-11T04:57:17;17.00;1.00
4637;DHT22;2331;48.806;9.140;2022-09-11T04:59:43;17.10;1.00
4637;DHT22;2331;48.806;9.140;2022-09-11T05:02:13;17.00;1.00
4637;DHT22;2331;48.806;9.140;2022-09-11T05:04:40;17.00;1.00
4637;DHT22;2331;48.806;9.140;2022-09-11T05:07:07;17.00;1.00
4637;DHT22;2331;48.806;9.140;2022-09-11T05:09:37;17.00;1.00
4637;DHT22;2331;48.806;9.140;2022-09-11T05:12:04;16.90;1.00
4637;DHT22;2331;48.806;9.140;2022-09-11T05:14:31;17.00;1.00
4637;DHT22;2331;48.806;9.140;2022-09-11T05:16:59;17.10;1.00
4637;DHT22;2331;48.806;9.140;2022-09-11T05:19:28;17.10;1.00
4637;DHT22;2331;48.806;9.140;2022-09-11T05:21:54;17.10;1.00
4637;DHT22;2331;48.806;9.140;2022-09-11T05:24:21;17.00;1.00
4637;DHT22;2331;48.806;9.140;2022-09-11T05:26:48;17.00;1.00
4637;DHT22;2331;48.806;9.140;2022-09-11T05:29:15;17.00;1.00
4637;DHT22;2331;48.806;9.140;2022-09-11T05:31:42;17.00;1.00
4637;DHT22;2331;48.806;9.140;2022-09-11T05:34:08;17.00;1.00
4637;DHT22;2331;48.806;9.140;2022-09-11T05:36:37;17.00;1.00
4637;DHT22;2331;48.806;9.140;2022-09-11T05:39:03;17.00;1.00
4637;DHT22;2331;48.806;9.140;2022-09-11T05:41:30;16.90;1.00
4637;DHT22;2331;48.806;9.140;2022-09-11T05:43:57;16.90;1.00
4637;DHT22;2331;48.806;9.140;2022-09-11T05:46:24;16.80;1.00
4637;DHT22;2331;48.806;9.140;2022-09-11T05:48:51;16.80;1.00
4637;DHT22;2331;48.806;9.140;2022-09-11T05:51:19;16.80;1.00
4637;DHT22;2331;48.806;9.140;2022-09-11T05:53:50;16.90;1.00
4637;DHT22;2331;48.806;9.140;2022-09-11T06:03:01;17.00;1.00
4637;DHT22;2331;48.806;9.140;2022-09-11T06:05:27;17.00;1.00
4637;DHT22;2331;48.806;9.140;2022-09-11T06:07:55;16.90;1.00
4637;DHT22;2331;48.806;9.140;2022-09-11T06:10:23;16.90;1.00
4637;DHT22;2331;48.806;9.140;2022-09-11T06:12:50;17.00;1.00
4637;DHT22;2331;48.806;9.140;2022-09-11T06:15:17;17.00;1.00
4637;DHT22;2331;48.806;9.140;2022-09-11T06:17:44;17.00;1.00
4637;DHT22;2331;48.806;9.140;2022-09-11T06:20:10;17.10;1.00
4637;DHT22;2331;48.806;9.140;2022-09-11T06:22:37;17.10;1.00
4637;DHT22;2331;48.806;9.140;2022-09-11T06:25:05;17.10;1.00
4637;DHT22;2331;48.806;9.140;2022-09-11T06:27:33;17.10;1.00
4637;DHT22;2331;48.806;9.140;2022-09-11T06:30:00;17.00;1.00
4637;DHT22;2331;48.806;9.140;2022-09-11T06:32:27;17.10;1.00
4637;DHT22;2331;48.806;9.140;2022-09-11T06:34:53;17.00;1.00
4637;DHT22;2331;48.806;9.140;2022-09-11T06:37:20;17.00;1.00
4637;DHT22;2331;48.806;9.140;2022-09-11T06:39:47;17.10;1.00
4637;DHT22;2331;48.806;9.140;2022-09-11T06:42:14;17.10;1.00
4637;DHT22;2331;48.806;9.140;2022-09-11T06:44:42;17.10;1.00
4637;DHT22;2331;48.806;9.140;2022-09-11T06:47:09;17.10;1.00
4637;DHT22;2331;48.806;9.140;2022-09-11T06:49:35;17.10;1.00
4637;DHT22;2331;48.806;9.140;2022-09-11T06:52:02;17.10;1.00
4637;DHT22;2331;48.806;9.140;2022-09-11T06:54:29;17.10;1.00
4637;DHT22;2331;48.806;9.140;2022-09-11T06:56:57;17.10;1.00
4637;DHT22;2331;48.806;9.140;2022-09-11T06:59:24;17.20;1.00
4637;DHT22;2331;48.806;9.140;2022-09-11T07:01:52;17.10;1.00
4637;DHT22;2331;48.806;9.140;2022-09-11T07:04:19;17.20;1.00
4637;DHT22;2331;48.806;9.140;2022-09-11T07:06:48;17.20;1.00
4637;DHT22;2331;48.806;9.140;2022-09-11T07:09:14;17.20;1.00
4637;DHT22;2331;48.806;9.140;2022-09-11T07:11:41;17.20;1.00
4637;DHT22;2331;48.806;9.140;2022-09-11T07:14:11;17.20;1.00
4637;DHT22;2331;48.806;9.140;2022-09-11T07:16:37;17.20;1.00
4637;DHT22;2331;48.806;9.140;2022-09-11T07:19:06;17.10;1.00
4637;DHT22;2331;48.806;9.140;2022-09-11T07:21:34;17.20;1.00
4637;DHT22;2331;48.806;9.140;2022-09-11T07:24:01;17.20;1.00
4637;DHT22;2331;48.806;9.140;2022-09-11T07:26:29;17.20;1.00
4637;DHT22;2331;48.806;9.140;2022-09-11T07:28:57;17.20;1.00
4637;DHT22;2331;48.806;9.140;2022-09-11T07:31:25;17.30;1.00
4637;DHT22;2331;48.806;9.140;2022-09-11T07:33:53;17.30;1.00
4637;DHT22;2331;48.806;9.140;2022-09-11T07:36:24;17.30;1.00
4637;DHT22;2331;48.806;9.140;2022-09-11T07:38:52;17.30;1.00
4637;DHT22;2331;48.806;9.140;2022-09-11T07:41:21;17.40;1.00
4637;DHT22;2331;48.806;9.140;2022-09-11T07:43:51;17.40;1.00
4637;DHT22;2331;48.806;9.140;2022-09-11T07:46:18;17.40;1.00
4637;DHT22;2331;48.806;9.140;2022-09-11T07:48:46;17.30;1.00
4637;DHT22;2331;48.806;9.140;2022-09-11T07:51:14;17.20;1.00
4637;DHT22;2331;48.806;9.140;2022-09-11T07:53:44;17.30;1.00
4637;DHT22;2331;48.806;9.140;2022-09-11T07:56:12;17.30;1.00
4637;DHT22;2331;48.806;9.140;2022-09-11T07:58:41;17.40;1.00
4637;DHT22;2331;48.806;9.140;2022-09-11T08:01:10;17.30;1.00
4637;DHT22;2331;48.806;9.140;2022-09-11T08:03:37;17.30;1.00
4637;DHT22;2331;48.806;9.140;2022-09-11T08:06:05;17.30;1.00
4637;DHT22;2331;48.806;9.140;2022-09-11T08:08:34;17.30;1.00
4637;DHT22;2331;48.806;9.140;2022-09-11T08:11:05;17.30;1.00
4637;DHT22;2331;48.806;9.140;2022-09-11T08:13:33;17.40;1.00
4637;DHT22;2331;48.806;9.140;2022-09-11T08:16:01;17.50;1.00
4637;DHT22;2331;48.806;9.140;2022-09-11T08:18:28;17.50;1.00
4637;DHT22;2331;48.806;9.140;2022-09-11T08:21:00;17.60;1.00
4637;DHT22;2331;48.806;9.140;2022-09-11T08:23:27;17.60;1.00
4637;DHT22;2331;48.806;9.140;2022-09-11T08:26:01;17.70;1.00
4637;DHT22;2331;48.806;9.140;2022-09-11T08:28:29;17.80;1.00
4637;DHT22;2331;48.806;9.140;2022-09-11T08:30:56;17.90;1.00
4637;DHT22;2331;48.806;9.140;2022-09-11T08:33:23;17.80;1.00
4637;DHT22;2331;48.806;9.140;2022-09-11T08:35:50;17.90;1.00
4637;DHT22;2331;48.806;9.140;2022-09-11T08:38:16;17.80;1.00
4637;DHT22;2331;48.806;9.140;2022-09-11T08:40:43;18.00;1.00
4637;DHT22;2331;48.806;9.140;2022-09-11T08:43:17;18.00;1.00
4637;DHT22;2331;48.806;9.140;2022-09-11T08:45:47;17.90;1.00
4637;DHT22;2331;48.806;9.140;2022-09-11T08:48:20;17.90;1.00
4637;DHT22;2331;48.806;9.140;2022-09-11T08:50:49;17.90;1.00
4637;DHT22;2331;48.806;9.140;2022-09-11T08:53:19;17.90;1.00
4637;DHT22;2331;48.806;9.140;2022-09-11T08:55:48;18.00;1.00
4637;DHT22;2331;48.806;9.140;2022-09-11T08:58:23;17.90;1.00
4637;DHT22;2331;48.806;9.140;2022-09-11T09:00:59;18.00;1.00
4637;DHT22;2331;48.806;9.140;2022-09-11T09:03:51;18.10;1.00
4637;DHT22;2331;48.806;9.140;2022-09-11T09:06:37;18.20;1.00
4637;DHT22;2331;48.806;9.140;2022-09-11T09:09:13;18.30;1.00
4637;DHT22;2331;48.806;9.140;2022-09-11T09:11:48;18.50;1.00
4637;DHT22;2331;48.806;9.140;2022-09-11T09:14:29;18.60;1.00
4637;DHT22;2331;48.806;9.140;2022-09-11T09:17:02;18.60;1.00
4637;DHT22;2331;48.806;9.140;2022-09-11T09:19:33;18.70;1.00
4637;DHT22;2331;48.806;9.140;2022-09-11T09:22:08;18.80;1.00
4637;DHT22;2331;48.806;9.140;2022-09-11T09:24:41;18.70;1.00
4637;DHT22;2331;48.806;9.140;2022-09-11T09:27:13;18.70;1.00
4637;DHT22;2331;48.806;9.140;2022-09-11T09:29:41;18.80;1.00
4637;DHT22;2331;48.806;9.140;2022-09-11T09:32:17;18.80;1.00
4637;DHT22;2331;48.806;9.140;2022-09-11T09:34:46;19.00;1.00
4637;DHT22;2331;48.806;9.140;2022-09-11T09:37:15;19.00;1.00
4637;DHT22;2331;48.806;9.140;2022-09-11T09:39:43;19.00;1.00
4637;DHT22;2331;48.806;9.140;2022-09-11T09:42:23;19.00;1.00
4637;DHT22;2331;48.806;9.140;2022-09-11T09:45:08;19.00;1.00
4637;DHT22;2331;48.806;9.140;2022-09-11T09:47:42;19.10;1.00
4637;DHT22;2331;48.806;9.140;2022-09-11T09:50:15;19.10;1.00
4637;DHT22;2331;48.806;9.140;2022-09-11T09:52:44;19.00;1.00
4637;DHT22;2331;48.806;9.140;2022-09-11T09:55:15;19.00;1.00
4637;DHT22;2331;48.806;9.140;2022-09-11T09:57:43;19.10;1.00
4637;DHT22;2331;48.806;9.140;2022-09-11T10:00:15;19.00;1.00
4637;DHT22;2331;48.806;9.140;2022-09-11T10:02:46;19.20;1.00
4637;DHT22;2331;48.806;9.140;2022-09-11T10:05:18;19.20;1.00
4637;DHT22;2331;48.806;9.140;2022-09-11T10:07:47;19.20;1.00
4637;DHT22;2331;48.806;9.140;2022-09-11T10:10:24;19.30;1.00
4637;DHT22;2331;48.806;9.140;2022-09-11T10:12:51;19.30;1.00
4637;DHT22;2331;48.806;9.140;2022-09-11T10:15:20;19.30;1.00
4637;DHT22;2331;48.806;9.140;2022-09-11T10:17:49;19.30;1.00
4637;DHT22;2331;48.806;9.140;2022-09-11T10:20:22;19.40;1.00
4637;DHT22;2331;48.806;9.140;2022-09-11T10:22:52;19.40;1.00
4637;DHT22;2331;48.806;9.140;2022-09-11T10:25:21;19.30;1.00
4637;DHT22;2331;48.806;9.140;2022-09-11T10:28:03;19.40;1.00
4637;DHT22;2331;48.806;9.140;2022-09-11T10:30:33;19.40;1.00
4637;DHT22;2331;48.806;9.140;2022-09-11T10:33:05;19.60;1.00
4637;DHT22;2331;48.806;9.140;2022-09-11T10:35:33;19.60;1.00
4637;DHT22;2331;48.806;9.140;2022-09-11T10:38:11;19.70;1.00
4637;DHT22;2331;48.806;9.140;2022-09-11T10:40:51;19.60;1.00
4637;DHT22;2331;48.806;9.140;2022-09-11T10:43:21;19.60;1.00
4637;DHT22;2331;48.806;9.140;2022-09-11T10:46:25;19.60;1.00
4637;DHT22;2331;48.806;9.140;2022-09-11T10:48:56;19.70;1.00
4637;DHT22;2331;48.806;9.140;2022-09-11T10:51:25;19.90;1.00
4637;DHT22;2331;48.806;9.140;2022-09-11T10:54:07;19.90;1.00
4637;DHT22;2331;48.806;9.140;2022-09-11T10:56:43;20.00;1.00
4637;DHT22;2331;48.806;9.140;2022-09-11T10:59:17;20.10;1.00
4637;DHT22;2331;48.806;9.140;2022-09-11T11:01:47;20.20;1.00
4637;DHT22;2331;48.806;9.140;2022-09-11T11:04:16;20.20;1.00
4637;DHT22;2331;48.806;9.140;2022-09-11T11:06:55;20.20;1.00
4637;DHT22;2331;48.806;9.140;2022-09-11T11:09:44;20.20;1.00
4637;DHT22;2331;48.806;9.140;2022-09-11T11:12:28;20.30;1.00
4637;DHT22;2331;48.806;9.140;2022-09-11T11:15:32;20.20;1.00
4637;DHT22;2331;48.806;9.140;2022-09-11T11:18:23;20.30;1.00
4637;DHT22;2331;48.806;9.140;2022-09-11T11:21:03;20.20;1.00
4637;DHT22;2331;48.806;9.140;2022-09-11T11:23:48;20.30;1.00
4637;DHT22;2331;48.806;9.140;2022-09-11T11:26:33;20.30;1.00
4637;DHT22;2331;48.806;9.140;2022-09-11T11:29:11;20.40;1.00
4637;DHT22;2331;48.806;9.140;2022-09-11T11:31:53;20.50;1.00
4637;DHT22;2331;48.806;9.140;2022-09-11T11:34:32;20.50;1.00
4637;DHT22;2331;48.806;9.140;2022-09-11T11:37:10;20.70;1.00
4637;DHT22;2331;48.806;9.140;2022-09-11T11:39:45;20.60;1.00
4637;DHT22;2331;48.806;9.140;2022-09-11T11:42:21;20.80;1.00
4637;DHT22;2331;48.806;9.140;2022-09-11T11:44:52;20.80;1.00
4637;DHT22;2331;48.806;9.140;2022-09-11T11:47:23;21.00;1.00
4637;DHT22;2331;48.806;9.140;2022-09-11T11:49:55;21.00;1.00
4637;DHT22;2331;48.806;9.140;2022-09-11T11:52:34;21.10;1.00
4637;DHT22;2331;48.806;9.140;2022-09-11T11:55:14;21.30;1.00
4637;DHT22;2331;48.806;9.140;2022-09-11T11:57:45;21.30;1.00
4637;DHT22;2331;48.806;9.140;2022-09-11T12:00:15;21.40;1.00
4637;DHT22;2331;48.806;9.140;2022-09-11T12:02:46;21.40;1.00
4637;DHT22;2331;48.806;9.140;2022-09-11T12:05:18;21.40;1.00
4637;DHT22;2331;48.806;9.140;2022-09-11T12:07:51;21.40;1.00
4637;DHT22;2331;48.806;9.140;2022-09-11T12:10:21;21.40;1.00
4637;DHT22;2331;48.806;9.140;2022-09-11T12:12:54;21.60;1.00
4637;DHT22;2331;48.806;9.140;2022-09-11T12:15:23;21.80;1.00
4637;DHT22;2331;48.806;9.140;2022-09-11T12:17:58;21.70;1.00
4637;DHT22;2331;48.806;9.140;2022-09-11T12:20:35;21.80;1.00
4637;DHT22;2331;48.806;9.140;2022-09-11T12:23:06;21.80;1.00
4637;DHT22;2331;48.806;9.140;2022-09-11T12:26:03;21.80;1.00
4637;DHT22;2331;48.806;9.140;2022-09-11T12:28:30;21.70;1.00
4637;DHT22;2331;48.806;9.140;2022-09-11T12:31:00;21.70;1.00
4637;DHT22;2331;48.806;9.140;2022-09-11T12:33:55;21.70;1.00
4637;DHT22;2331;48.806;9.140;2022-09-11T12:36:31;21.60;1.00
4637;DHT22;2331;48.806;9.140;2022-09-11T12:39:04;21.60;1.00
4637;DHT22;2331;48.806;9.140;2022-09-11T12:41:39;21.60;1.00
4637;DHT22;2331;48.806;9.140;2022-09-11T12:44:28;21.70;1.00
4637;DHT22;2331;48.806;9.140;2022-09-11T12:47:07;21.70;1.00
4637;DHT22;2331;48.806;9.140;2022-09-11T12:49:37;21.60;1.00
4637;DHT22;2331;48.806;9.140;2022-09-11T12:52:14;21.60;1.00
4637;DHT22;2331;48.806;9.140;2022-09-11T12:54:44;21.60;1.00
4637;DHT22;2331;48.806;9.140;2022-09-11T12:57:16;21.70;1.00
4637;DHT22;2331;48.806;9.140;2022-09-11T12:59:50;21.80;1.00
4637;DHT22;2331;48.806;9.140;2022-09-11T13:02:24;21.90;1.00
4637;DHT22;2331;48.806;9.140;2022-09-11T13:04:53;21.80;1.00
4637;DHT22;2331;48.806;9.140;2022-09-11T13:07:26;21.90;1.00
4637;DHT22;2331;48.806;9.140;2022-09-11T13:10:02;21.90;1.00
4637;DHT22;2331;48.806;9.140;2022-09-11T13:12:59;21.80;1.00
4637;DHT22;2331;48.806;9.140;2022-09-11T13:15:32;21.90;1.00
4637;DHT22;2331;48.806;9.140;2022-09-11T13:18:13;21.90;1.00
4637;DHT22;2331;48.806;9.140;2022-09-11T13:20:40;21.90;1.00
4637;DHT22;2331;48.806;9.140;2022-09-11T13:23:15;21.90;1.00
4637;DHT22;2331;48.806;9.140;2022-09-11T13:25:45;21.90;1.00
4637;DHT22;2331;48.806;9.140;2022-09-11T13:28:12;21.90;1.00
4637;DHT22;2331;48.806;9.140;2022-09-11T13:30:50;21.80;1.00
4637;DHT22;2331;48.806;9.140;2022-09-11T13:33:21;21.90;1.00
4637;DHT22;2331;48.806;9.140;2022-09-11T13:35:50;21.90;1.00
4637;DHT22;2331;48.806;9.140;2022-09-11T13:38:22;22.00;1.00
4637;DHT22;2331;48.806;9.140;2022-09-11T13:40:52;21.80;1.00
4637;DHT22;2331;48.806;9.140;2022-09-11T13:43:23;21.80;1.00
4637;DHT22;2331;48.806;9.140;2022-09-11T13:46:10;21.70;1.00
4637;DHT22;2331;48.806;9.140;2022-09-11T13:48:36;21.60;1.00
4637;DHT22;2331;48.806;9.140;2022-09-11T13:51:04;21.70;1.00
4637;DHT22;2331;48.806;9.140;2022-09-11T13:53:32;21.80;1.00
4637;DHT22;2331;48.806;9.140;2022-09-11T13:56:02;21.90;1.00
4637;DHT22;2331;48.806;9.140;2022-09-11T13:58:30;22.00;1.00
4637;DHT22;2331;48.806;9.140;2022-09-11T14:01:08;22.00;1.00
4637;DHT22;2331;48.806;9.140;2022-09-11T14:03:36;22.10;1.00
4637;DHT22;2331;48.806;9.140;2022-09-11T14:06:09;22.20;1.00
4637;DHT22;2331;48.806;9.140;2022-09-11T14:08:40;22.30;1.00
4637;DHT22;2331;48.806;9.140;2022-09-11T14:11:13;22.30;1.00
4637;DHT22;2331;48.806;9.140;2022-09-11T14:13:49;22.30;1.00
4637;DHT22;2331;48.806;9.140;2022-09-11T14:16:22;22.30;1.00
4637;DHT22;2331;48.806;9.140;2022-09-11T14:18:51;22.20;1.00
4637;DHT22;2331;48.806;9.140;2022-09-11T14:21:21;22.20;1.00
4637;DHT22;2331;48.806;9.140;2022-09-11T14:23:51;22.10;1.00
4637;DHT22;2331;48.806;9.140;2022-09-11T14:26:21;22.20;1.00
4637;DHT22;2331;48.806;9.140;2022-09-11T14:28:58;22.20;1.00
4637;DHT22;2331;48.806;9.140;2022-09-11T14:31:31;22.20;1.00
4637;DHT22;2331;48.806;9.140;2022-09-11T14:34:12;22.30;1.00
4637;DHT22;2331;48.806;9.140;2022-09-11T14:36:43;22.30;1.00
4637;DHT22;2331;48.806;9.140;2022-09-11T14:39:14;22.20;1.00
4637;DHT22;2331;48.806;9.140;2022-09-11T14:41:44;22.30;1.00
4637;DHT22;2331;48.806;9.140;2022-09-11T14:44:12;22.30;1.00
4637;DHT22;2331;48.806;9.140;2022-09-11T14:46:40;22.20;1.00
4637;DHT22;2331;48.806;9.140;2022-09-11T14:49:07;22.30;1.00
4637;DHT22;2331;48.806;9.140;2022-09-11T14:51:35;22.20;1.00
4637;DHT22;2331;48.806;9.140;2022-09-11T14:54:03;22.10;1.00
4637;DHT22;2331;48.806;9.140;2022-09-11T14:56:30;22.20;1.00
4637;DHT22;2331;48.806;9.140;2022-09-11T14:58:58;22.10;1.00
4637;DHT22;2331;48.806;9.140;2022-09-11T15:01:25;22.30;1.00
4637;DHT22;2331;48.806;9.140;2022-09-11T15:03:52;22.10;1.00
4637;DHT22;2331;48.806;9.140;2022-09-11T15:06:21;22.10;1.00
4637;DHT22;2331;48.806;9.140;2022-09-11T15:08:48;22.10;1.00
4637;DHT22;2331;48.806;9.140;2022-09-11T15:11:15;22.10;1.00
4637;DHT22;2331;48.806;9.140;2022-09-11T15:13:42;22.10;1.00
4637;DHT22;2331;48.806;9.140;2022-09-11T15:16:12;22.20;1.00
4637;DHT22;2331;48.806;9.140;2022-09-11T15:18:40;22.20;1.00
4637;DHT22;2331;48.806;9.140;2022-09-11T15:21:07;22.30;1.00
4637;DHT22;2331;48.806;9.140;2022-09-11T15:23:34;22.20;1.00
4637;DHT22;2331;48.806;9.140;2022-09-11T15:26:01;22.30;1.00
4637;DHT22;2331;48.806;9.140;2022-09-11T15:28:28;22.30;1.00
4637;DHT22;2331;48.806;9.140;2022-09-11T15:30:56;22.30;1.00
4637;DHT22;2331;48.806;9.140;2022-09-11T15:33:26;22.30;1.00
4637;DHT22;2331;48.806;9.140;2022-09-11T15:35:53;22.30;1.00
4637;DHT22;2331;48.806;9.140;2022-09-11T15:38:21;22.30;1.00
4637;DHT22;2331;48.806;9.140;2022-09-11T15:40:50;22.30;1.00
4637;DHT22;2331;48.806;9.140;2022-09-11T15:43:21;22.40;1.00
4637;DHT22;2331;48.806;9.140;2022-09-11T15:45:48;22.40;1.00
4637;DHT22;2331;48.806;9.140;2022-09-11T15:48:15;22.40;1.00
4637;DHT22;2331;48.806;9.140;2022-09-11T15:50:44;22.50;1.00
4637;DHT22;2331;48.806;9.140;2022-09-11T15:53:11;22.40;1.00
4637;DHT22;2331;48.806;9.140;2022-09-11T15:55:38;22.40;1.00
4637;DHT22;2331;48.806;9.140;2022-09-11T15:58:04;22.50;1.00
4637;DHT22;2331;48.806;9.140;2022-09-11T16:00:33;22.60;1.00
4637;DHT22;2331;48.806;9.140;2022-09-11T16:03:00;22.70;1.00
4637;DHT22;2331;48.806;9.140;2022-09-11T16:05:27;22.70;1.00
4637;DHT22;2331;48.806;9.140;2022-09-11T16:07:57;22.70;1.00
4637;DHT22;2331;48.806;9.140;2022-09-11T16:10:24;22.70;1.00
4637;DHT22;2331;48.806;9.140;2022-09-11T16:12:52;22.70;1.00
4637;DHT22;2331;48.806;9.140;2022-09-11T16:15:18;22.70;1.00
4637;DHT22;2331;48.806;9.140;2022-09-11T16:17:45;22.70;1.00
4637;DHT22;2331;48.806;9.140;2022-09-11T16:20:12;22.70;1.00
4637;DHT22;2331;48.806;9.140;2022-09-11T16:22:39;22.70;1.00
4637;DHT22;2331;48.806;9.140;2022-09-11T16:25:08;22.60;1.00
4637;DHT22;2331;48.806;9.140;2022-09-11T16:27:34;22.70;1.00
4637;DHT22;2331;48.806;9.140;2022-09-11T16:30:01;22.80;1.00
4637;DHT22;2331;48.806;9.140;2022-09-11T16:32:28;22.80;1.00
4637;DHT22;2331;48.806;9.140;2022-09-11T16:35:01;22.80;1.00
4637;DHT22;2331;48.806;9.140;2022-09-11T16:37:28;22.80;1.00
4637;DHT22;2331;48.806;9.140;2022-09-11T16:39:58;22.80;1.00
4637;DHT22;2331;48.806;9.140;2022-09-11T16:42:27;22.80;1.00
4637;DHT22;2331;48.806;9.140;2022-09-11T16:44:54;22.90;1.00
4637;DHT22;2331;48.806;9.140;2022-09-11T16:47:21;22.90;1.00
4637;DHT22;2331;48.806;9.140;2022-09-11T16:49:48;22.90;1.00
4637;DHT22;2331;48.806;9.140;2022-09-11T16:52:15;22.90;1.00
4637;DHT22;2331;48.806;9.140;2022-09-11T16:54:42;22.90;1.00
4637;DHT22;2331;48.806;9.140;2022-09-11T16:57:09;22.90;1.00
4637;DHT22;2331;48.806;9.140;2022-09-11T16:59:37;22.90;1.00
4637;DHT22;2331;48.806;9.140;2022-09-11T17:02:04;23.10;1.00
4637;DHT22;2331;48.806;9.140;2022-09-11T17:04:31;23.00;1.00
4637;DHT22;2331;48.806;9.140;2022-09-11T17:06:58;22.90;1.00
4637;DHT22;2331;48.806;9.140;2022-09-11T17:09:25;22.90;1.00
4637;DHT22;2331;48.806;9.140;2022-09-11T17:11:52;22.90;1.00